Parkman, Ohio
Current Conditions -  °F | °C
As of 2:57 AM on Sunday 26 Oct 2014 (Local Time) from KPOV Reporting Station
Clear Clear  
Wind Chill: 46°   Ceiling: Unl
Heat Index: 50°   Visibility: 10mi
Dew Point: 32°   Wind: 8mph
Humidity: 50%   Direction: 280°W
Pressure: 29.81"   Gusts: NA
Location:  41.37°N, 81.06°W
Report Text: KPOV 260657Z AUTO 28007KT 10SM CLR 10/00 A2981 RMK AO2 T00981001
Loading
Personal Weather Stations






























Interactive Weather Map
Tropical Storm Tracking
New forecast layout! Learn more

10-Day Weather Forecast

Advertisements
Track Severe Weather on mobile